x

West Sea Otter (46204) Wave Buoy

7:00 - Mon 29th Aug 2016 All times are PDT. -7 hours from GMT.

  • Sig Wave height 4.9ft
  • Peak Period 8s
  • Wind
    11mph, 16mph gusts
  • Sea Temp 57°f
  • Aire Temp 56°f
  • Sea Pressure 1011.3mb
  • West Sea Otter
  • West Sea Otter

More Historic Weather Station data

Upgrade to MSW Pro to gain access to the past 30 days of data for over 8000 Wavebouys and Weather Stations around the globe.

Join Pro

Comparision Forecast

View Surf forecast
   
lun 08/29 7:00 5ft 8s 11 16 mph 1011.3mb 57f 56f
6:00 4.5ft 8s 18 20 mph 1011.6mb 57f 57f
5:00 4.5ft 9s 20 25 mph 1011.5mb 57f 56f
4:00 4.5ft 9s 18 22 mph 1011.7mb 57f 56f
3:00 4.5ft 10s 16 20 mph 1011.9mb 57f 56f
2:00 4.5ft 10s 16 18 mph 1011.7mb 56f 57f
1:00 4.5ft 9s 13 16 mph 1011.8mb 56f 56f
12:00 5.5ft 9s 13 16 mph 1011.9mb 56f 55f
11:00 6ft 10s 18 22 mph 1011.6mb 56f 56f
10:00 6ft 10s 20 22 mph 1011.7mb 56f 56f
9:00 6ft 10s 18 22 mph 1011.8mb 56f 56f
8:00 5.5ft 8s 18 20 mph 1012.2mb 56f 56f
7:00 5ft 8s 16 20 mph 1012.2mb 56f 57f
6:00 5ft 8s 16 20 mph 1012.2mb 56f 57f
5:00 6ft 9s 18 20 mph 1012.4mb 56f 56f
4:00 5.5ft 5s 18 20 mph 1012.5mb 56f 56f
3:00 6ft 6s 16 18 mph 1012.4mb 55f 56f
2:00 5.5ft 7s 20 25 mph 1012.2mb 55f 56f
1:00 5.5ft 8s 20 22 mph 1012.1mb 55f 56f
12:00 6ft 5s 20 27 mph 1011.9mb 55f 56f
dom 08/28 11:00 6ft 5s 20 25 mph 1011.6mb 55f 56f
10:00 5.5ft 5s 20 25 mph 1011.5mb 55f 56f
9:00 6.5ft 6s 22 29 mph 1011.4mb 56f 55f
8:00 6ft 6s 25 34 mph 1010.9mb 56f 56f
7:00 7ft 6s 27 31 mph 1010.8mb 56f 56f
6:00 7ft 6s 29 38 mph 1010.8mb 56f 56f
5:00 7ft 7s 27 34 mph 1010.9mb 56f 56f
4:00 8ft 7s 27 34 mph 1011.1mb 56f 56f
2:00 7.5ft 7s 22 29 mph 1011.4mb 56f 55f
12:00 6.5ft 6s 18 22 mph 1011mb 56f 55f
11:00 6.5ft 6s 22 27 mph 1010.9mb 57f 55f
10:00 6.5ft 5s 25 29 mph 1010.4mb 57f 55f
9:00 5ft 5s 25 29 mph 1010.2mb 57f 55f
8:00 4.5ft 4s 27 34 mph 1010.1mb 57f 55f
7:00 3.5ft 4s 22 27 mph 1010.6mb 58f 56f
6:00 3.5ft 8s 20 25 mph 1011.1mb 58f 56f
5:00 3.5ft 8s 18 22 mph 1011.4mb 58f 56f
4:00 3ft 8s 16 20 mph 1012mb 58f 57f
3:00 3ft 8s 13 16 mph 1012.4mb 58f 57f
2:00 3.5ft 8s 9 11 mph 1012.6mb 58f 57f
1:00 3.5ft 8s 9
mph
1012.4mb 58f 57f
12:00 3.5ft 8s 4 7 mph 1012.5mb 58f 57f
sáb 08/27 11:00 3.5ft 8s 4
mph
1012.3mb 58f 57f
10:00 4.5ft 8s 2 4 mph 1012.4mb 58f 57f
9:00 4ft 8s  -  mph 1012.5mb 58f 58f
8:00 4ft 8s 2
mph
1012.4mb 58f 58f
7:00 3.5ft 8s 4
mph
1012.5mb 59f 58f
6:00 4.5ft 8s 7
mph
1012.7mb 59f 59f
5:00 3.5ft 8s 4 7 mph 1012.7mb 59f 59f
4:00 3.5ft 8s 4 7 mph 1012.8mb 59f 58f
3:00 3.5ft 8s 7
mph
1012.6mb 59f 58f
2:00 4ft 8s 7
mph
1012.8mb 58f 57f
1:00 4.5ft 8s 7 9 mph 1012.7mb 58f 57f
12:00 4ft 8s 7 9 mph 1012.5mb 58f 57f
11:00 4.5ft 6s 4 7 mph 1012.1mb 58f 57f
10:00 4.5ft 8s 4 7 mph 1012mb 57f 57f
9:00 4.5ft 7s 4 7 mph 1012.2mb 57f 57f
8:00 4.5ft 7s 2 4 mph 1012.4mb 57f 58f
7:00 4.5ft 7s 4
mph
1012.6mb 57f 58f
6:00 4.5ft 7s 4 7 mph 1012.8mb 57f 58f
5:00 4.5ft 7s 9 11 mph 1013.1mb 57f 58f
4:00 4.5ft 8s 9 11 mph 1013.3mb 57f 58f
3:00 3.5ft 7s 7 9 mph 1013.3mb 57f 58f
2:00 4ft 7s 9 11 mph 1013.4mb 57f 58f
1:00 4.5ft 7s 11 13 mph 1013.3mb 57f 58f
12:00 4ft 7s 13 18 mph 1013.3mb 57f 58f
vie 08/26 11:00 4.5ft 7s 13 16 mph 1013.6mb 57f 58f
10:00 4.5ft 7s 9 11 mph 1013.8mb 57f 58f
9:00 4.5ft 6s 11 13 mph 1013.8mb 57f 58f
8:00 5ft 7s 9 13 mph 1013.7mb 57f 58f
7:00 5ft 8s 18 20 mph 1013.9mb 57f 58f
6:00 6ft 8s 16 18 mph 1014.4mb 57f 58f
5:00 6ft 7s 18 20 mph 1015mb 58f 59f
4:00 6ft 8s 18 22 mph 1015.2mb 57f 59f
3:00 6.5ft 7s 16 18 mph 1015.7mb 57f 59f
2:00 7ft 8s 13 20 mph 1016.1mb 57f 58f
1:00 7ft 8s 18 20 mph 1016.1mb 57f 58f
12:00 8ft 8s 22 27 mph 1016mb 57f 57f
11:00 8ft 7s 18 25 mph 1016mb 56f 57f
10:00 8.5ft 8s 20 25 mph 1016mb 56f 58f
9:00 9ft 8s 18 22 mph 1016.4mb 56f 57f
8:00 8ft 8s 18 22 mph 1016.3mb 56f 58f
7:00 8ft 8s 27 31 mph 1015.5mb 56f 58f
6:00 8ft 8s 22 31 mph 1016.3mb 56f 58f
5:00 8ft 8s 18 20 mph 1016.5mb 57f 58f
4:00 8ft 8s 16 22 mph 1016.7mb 57f 58f